sensor_id;sensor_type;location;lat;lon;timestamp;pressure;altitude;pressure_sealevel;temperature;humidity
43553;BME280;29153;42.696;23.218;2023-02-19T00:01:39;94729.22;;;4.33;76.53
43553;BME280;29153;42.696;23.218;2023-02-19T00:04:16;94738.73;;;4.25;77.03
43553;BME280;29153;42.696;23.218;2023-02-19T00:06:45;94743.13;;;4.34;76.80
43553;BME280;29153;42.696;23.218;2023-02-19T00:09:17;94741.07;;;4.24;77.15
43553;BME280;29153;42.696;23.218;2023-02-19T00:11:43;94730.64;;;4.15;77.44
43553;BME280;29153;42.696;23.218;2023-02-19T00:14:16;94727.51;;;4.16;77.24
43553;BME280;29153;42.696;23.218;2023-02-19T00:16:44;94723.62;;;4.06;77.25
43553;BME280;29153;42.696;23.218;2023-02-19T00:19:13;94720.23;;;4.06;77.28
43553;BME280;29153;42.696;23.218;2023-02-19T00:21:41;94712.94;;;3.96;76.99
43553;BME280;29153;42.696;23.218;2023-02-19T00:24:11;94706.02;;;3.81;77.56
43553;BME280;29153;42.696;23.218;2023-02-19T00:26:40;94703.56;;;3.77;77.62
43553;BME280;29153;42.696;23.218;2023-02-19T00:29:14;94695.20;;;3.78;77.93
43553;BME280;29153;42.696;23.218;2023-02-19T00:31:38;94699.13;;;3.66;78.53
43553;BME280;29153;42.696;23.218;2023-02-19T00:34:06;94692.11;;;3.69;78.99
43553;BME280;29153;42.696;23.218;2023-02-19T00:36:38;94689.62;;;3.86;78.85
43553;BME280;29153;42.696;23.218;2023-02-19T00:39:06;94692.95;;;4.42;76.96
43553;BME280;29153;42.696;23.218;2023-02-19T00:41:34;94692.97;;;5.10;74.19
43553;BME280;29153;42.696;23.218;2023-02-19T00:44:04;94693.90;;;5.80;70.86
43553;BME280;29153;42.696;23.218;2023-02-19T00:46:37;94696.42;;;6.42;68.40
43553;BME280;29153;42.696;23.218;2023-02-19T00:49:06;94691.72;;;6.87;66.65
43553;BME280;29153;42.696;23.218;2023-02-19T00:51:36;94684.38;;;7.13;64.56
43553;BME280;29153;42.696;23.218;2023-02-19T00:54:04;94676.61;;;7.28;64.77
43553;BME280;29153;42.696;23.218;2023-02-19T00:56:32;94669.73;;;7.52;63.32
43553;BME280;29153;42.696;23.218;2023-02-19T00:59:00;94666.97;;;7.71;62.64
43553;BME280;29153;42.696;23.218;2023-02-19T01:01:28;94661.41;;;7.99;61.46
43553;BME280;29153;42.696;23.218;2023-02-19T01:03:55;94662.05;;;8.16;60.45
43553;BME280;29153;42.696;23.218;2023-02-19T01:06:23;94655.86;;;8.40;59.46
43553;BME280;29153;42.696;23.218;2023-02-19T01:08:50;94653.62;;;8.66;58.83
43553;BME280;29153;42.696;23.218;2023-02-19T01:11:18;94656.78;;;8.66;58.30
43553;BME280;29153;42.696;23.218;2023-02-19T01:13:47;94662.34;;;8.67;58.63
43553;BME280;29153;42.696;23.218;2023-02-19T01:16:20;94660.23;;;8.74;57.95
43553;BME280;29153;42.696;23.218;2023-02-19T01:18:50;94667.69;;;8.87;56.73
43553;BME280;29153;42.696;23.218;2023-02-19T01:21:20;94664.11;;;9.34;54.67
43553;BME280;29153;42.696;23.218;2023-02-19T01:23:49;94663.09;;;9.45;54.56
43553;BME280;29153;42.696;23.218;2023-02-19T01:26:24;94666.27;;;9.67;53.89
43553;BME280;29153;42.696;23.218;2023-02-19T01:28:48;94666.53;;;9.68;53.46
43553;BME280;29153;42.696;23.218;2023-02-19T01:31:18;94667.58;;;9.54;54.31
43553;BME280;29153;42.696;23.218;2023-02-19T01:33:48;94667.85;;;9.55;53.61
43553;BME280;29153;42.696;23.218;2023-02-19T01:36:16;94680.53;;;9.51;54.41
43553;BME280;29153;42.696;23.218;2023-02-19T01:38:44;94685.03;;;9.48;54.19
43553;BME280;29153;42.696;23.218;2023-02-19T01:41:15;94694.00;;;9.42;54.39
43553;BME280;29153;42.696;23.218;2023-02-19T01:44:04;94694.81;;;9.40;54.58
43553;BME280;29153;42.696;23.218;2023-02-19T01:46:38;94699.03;;;9.36;54.39
43553;BME280;29153;42.696;23.218;2023-02-19T01:49:23;94705.38;;;9.42;53.92
43553;BME280;29153;42.696;23.218;2023-02-19T01:51:54;94715.41;;;9.38;54.82
43553;BME280;29153;42.696;23.218;2023-02-19T01:54:23;94707.20;;;9.27;54.13
43553;BME280;29153;42.696;23.218;2023-02-19T01:56:51;94716.95;;;9.21;54.17
43553;BME280;29153;42.696;23.218;2023-02-19T01:59:21;94721.67;;;9.06;56.05
43553;BME280;29153;42.696;23.218;2023-02-19T02:01:49;94710.73;;;8.83;56.89
43553;BME280;29153;42.696;23.218;2023-02-19T02:04:17;94707.75;;;8.64;55.75
43553;BME280;29153;42.696;23.218;2023-02-19T02:06:50;94702.44;;;8.59;55.60
43553;BME280;29153;42.696;23.218;2023-02-19T02:09:21;94694.55;;;8.64;55.96
43553;BME280;29153;42.696;23.218;2023-02-19T02:12:07;94698.13;;;8.43;56.73
43553;BME280;29153;42.696;23.218;2023-02-19T02:14:36;94695.14;;;8.29;57.58
43553;BME280;29153;42.696;23.218;2023-02-19T02:17:25;94693.54;;;8.31;57.36
43553;BME280;29153;42.696;23.218;2023-02-19T02:20:41;94699.38;;;8.35;57.70
43553;BME280;29153;42.696;23.218;2023-02-19T02:22:41;94695.94;;;8.30;57.86
43553;BME280;29153;42.696;23.218;2023-02-19T02:25:24;94701.46;;;8.31;57.63
43553;BME280;29153;42.696;23.218;2023-02-19T02:28:02;94698.30;;;8.31;57.17
43553;BME280;29153;42.696;23.218;2023-02-19T02:30:46;94692.44;;;8.27;57.79
43553;BME280;29153;42.696;23.218;2023-02-19T02:35:53;94700.14;;;8.31;57.08
43553;BME280;29153;42.696;23.218;2023-02-19T02:38:28;94706.14;;;8.21;58.03
43553;BME280;29153;42.696;23.218;2023-02-19T02:40:55;94705.38;;;8.28;57.78
43553;BME280;29153;42.696;23.218;2023-02-19T02:43:22;94706.81;;;8.06;57.65
43553;BME280;29153;42.696;23.218;2023-02-19T02:45:50;94710.02;;;8.08;57.77
43553;BME280;29153;42.696;23.218;2023-02-19T02:53:34;94715.29;;;8.43;56.59
43553;BME280;29153;42.696;23.218;2023-02-19T02:56:17;94712.57;;;8.33;57.75
43553;BME280;29153;42.696;23.218;2023-02-19T02:58:47;94726.64;;;8.11;58.61
43553;BME280;29153;42.696;23.218;2023-02-19T03:01:18;94723.98;;;7.77;60.53
43553;BME280;29153;42.696;23.218;2023-02-19T03:04:07;94714.42;;;7.42;61.08
43553;BME280;29153;42.696;23.218;2023-02-19T03:06:35;94724.72;;;7.19;62.29
43553;BME280;29153;42.696;23.218;2023-02-19T03:09:30;94734.36;;;6.86;63.17
43553;BME280;29153;42.696;23.218;2023-02-19T03:11:59;94732.14;;;6.76;63.88
43553;BME280;29153;42.696;23.218;2023-02-19T03:14:50;94739.23;;;6.37;64.63
43553;BME280;29153;42.696;23.218;2023-02-19T03:17:42;94743.00;;;6.24;65.16
43553;BME280;29153;42.696;23.218;2023-02-19T03:20:29;94740.28;;;5.86;67.19
43553;BME280;29153;42.696;23.218;2023-02-19T03:22:59;94726.44;;;5.76;67.11
43553;BME280;29153;42.696;23.218;2023-02-19T03:25:30;94729.60;;;5.62;68.22
43553;BME280;29153;42.696;23.218;2023-02-19T03:28:18;94741.05;;;5.39;69.38
43553;BME280;29153;42.696;23.218;2023-02-19T03:30:50;94740.28;;;5.41;69.01
43553;BME280;29153;42.696;23.218;2023-02-19T03:33:21;94760.58;;;5.31;69.48
43553;BME280;29153;42.696;23.218;2023-02-19T03:35:59;94768.98;;;5.17;69.67
43553;BME280;29153;42.696;23.218;2023-02-19T03:40:58;94774.03;;;5.07;71.18
43553;BME280;29153;42.696;23.218;2023-02-19T03:43:47;94777.53;;;4.98;70.28
43553;BME280;29153;42.696;23.218;2023-02-19T03:46:20;94773.05;;;4.96;70.39
43553;BME280;29153;42.696;23.218;2023-02-19T03:48:50;94768.83;;;4.95;70.59
43553;BME280;29153;42.696;23.218;2023-02-19T03:54:02;94769.19;;;4.87;70.72
43553;BME280;29153;42.696;23.218;2023-02-19T03:56:34;94772.03;;;4.85;70.49
43553;BME280;29153;42.696;23.218;2023-02-19T03:59:14;94780.95;;;4.73;70.99
43553;BME280;29153;42.696;23.218;2023-02-19T04:01:47;94775.15;;;4.59;71.37
43553;BME280;29153;42.696;23.218;2023-02-19T04:04:26;94771.47;;;4.57;71.38
43553;BME280;29153;42.696;23.218;2023-02-19T04:06:55;94774.52;;;4.54;71.96
43553;BME280;29153;42.696;23.218;2023-02-19T04:09:26;94775.50;;;4.51;72.18
43553;BME280;29153;42.696;23.218;2023-02-19T04:11:54;94780.41;;;4.47;72.67
43553;BME280;29153;42.696;23.218;2023-02-19T04:17:05;94783.09;;;4.38;73.05
43553;BME280;29153;42.696;23.218;2023-02-19T04:19:34;94789.06;;;4.25;73.40
43553;BME280;29153;42.696;23.218;2023-02-19T04:22:04;94795.87;;;4.23;73.44
43553;BME280;29153;42.696;23.218;2023-02-19T04:24:36;94801.20;;;4.17;73.66
43553;BME280;29153;42.696;23.218;2023-02-19T04:27:04;94801.96;;;4.15;73.82
43553;BME280;29153;42.696;23.218;2023-02-19T04:29:32;94805.30;;;4.01;74.14
43553;BME280;29153;42.696;23.218;2023-02-19T04:32:00;94803.70;;;4.00;74.11
43553;BME280;29153;42.696;23.218;2023-02-19T04:34:27;94801.75;;;3.95;74.06
43553;BME280;29153;42.696;23.218;2023-02-19T04:36:55;94803.50;;;3.81;74.56
43553;BME280;29153;42.696;23.218;2023-02-19T04:39:22;94797.67;;;3.79;74.73
43553;BME280;29153;42.696;23.218;2023-02-19T04:41:50;94805.88;;;3.61;75.33
43553;BME280;29153;42.696;23.218;2023-02-19T04:44:17;94809.62;;;3.54;75.73
43553;BME280;29153;42.696;23.218;2023-02-19T04:46:45;94811.44;;;3.53;75.77
43553;BME280;29153;42.696;23.218;2023-02-19T04:49:13;94819.17;;;3.39;76.14
43553;BME280;29153;42.696;23.218;2023-02-19T04:51:40;94820.23;;;3.20;76.56
43553;BME280;29153;42.696;23.218;2023-02-19T04:54:08;94820.73;;;3.19;76.55
43553;BME280;29153;42.696;23.218;2023-02-19T04:56:36;94821.96;;;3.17;76.48
43553;BME280;29153;42.696;23.218;2023-02-19T04:59:03;94830.41;;;3.01;76.90
43553;BME280;29153;42.696;23.218;2023-02-19T05:01:31;94825.63;;;2.89;77.57
43553;BME280;29153;42.696;23.218;2023-02-19T05:03:58;94826.43;;;2.89;77.30
43553;BME280;29153;42.696;23.218;2023-02-19T05:06:26;94831.72;;;2.83;77.48
43553;BME280;29153;42.696;23.218;2023-02-19T05:08:53;94828.22;;;2.61;78.73
43553;BME280;29153;42.696;23.218;2023-02-19T05:11:21;94827.50;;;2.63;78.78
43553;BME280;29153;42.696;23.218;2023-02-19T05:13:49;94831.27;;;2.58;79.00
43553;BME280;29153;42.696;23.218;2023-02-19T05:16:17;94837.89;;;2.52;79.33
43553;BME280;29153;42.696;23.218;2023-02-19T05:18:45;94845.29;;;2.55;79.16
43553;BME280;29153;42.696;23.218;2023-02-19T05:21:14;94834.88;;;2.48;79.62
43553;BME280;29153;42.696;23.218;2023-02-19T05:23:42;94837.49;;;2.48;79.83
43553;BME280;29153;42.696;23.218;2023-02-19T05:26:21;94840.52;;;2.36;80.70
43553;BME280;29153;42.696;23.218;2023-02-19T05:28:51;94837.64;;;2.35;80.99
43553;BME280;29153;42.696;23.218;2023-02-19T05:31:20;94840.52;;;2.36;81.24
43553;BME280;29153;42.696;23.218;2023-02-19T05:33:48;94843.76;;;2.47;81.18
43553;BME280;29153;42.696;23.218;2023-02-19T05:36:19;94842.81;;;2.51;81.15
43553;BME280;29153;42.696;23.218;2023-02-19T05:38:51;94850.58;;;2.57;81.05
43553;BME280;29153;42.696;23.218;2023-02-19T05:41:26;94848.27;;;2.58;81.16
43553;BME280;29153;42.696;23.218;2023-02-19T05:43:49;94849.58;;;2.58;81.03
43553;BME280;29153;42.696;23.218;2023-02-19T05:46:20;94849.81;;;2.75;81.83
43553;BME280;29153;42.696;23.218;2023-02-19T05:48:48;94851.34;;;2.92;82.02
43553;BME280;29153;42.696;23.218;2023-02-19T05:51:19;94849.33;;;3.03;82.18
43553;BME280;29153;42.696;23.218;2023-02-19T05:53:47;94847.27;;;3.14;82.38
43553;BME280;29153;42.696;23.218;2023-02-19T05:58:54;94852.75;;;3.51;82.79
43553;BME280;29153;42.696;23.218;2023-02-19T06:01:24;94852.72;;;3.90;82.60
43553;BME280;29153;42.696;23.218;2023-02-19T06:03:52;94861.59;;;4.31;81.77
43553;BME280;29153;42.696;23.218;2023-02-19T06:06:20;94873.94;;;4.65;80.63
43553;BME280;29153;42.696;23.218;2023-02-19T06:08:49;94878.83;;;5.08;78.97
43553;BME280;29153;42.696;23.218;2023-02-19T06:11:18;94874.14;;;5.47;77.89
43553;BME280;29153;42.696;23.218;2023-02-19T06:13:46;94883.62;;;6.03;75.75
43553;BME280;29153;42.696;23.218;2023-02-19T06:16:15;94884.41;;;6.34;74.59
43553;BME280;29153;42.696;23.218;2023-02-19T06:18:47;94884.84;;;6.76;72.44
43553;BME280;29153;42.696;23.218;2023-02-19T06:21:16;94882.57;;;7.01;71.60
43553;BME280;29153;42.696;23.218;2023-02-19T06:23:44;94883.88;;;7.20;70.60
43553;BME280;29153;42.696;23.218;2023-02-19T06:26:17;94889.02;;;7.32;70.23
43553;BME280;29153;42.696;23.218;2023-02-19T06:28:46;94891.36;;;7.48;68.92
43553;BME280;29153;42.696;23.218;2023-02-19T06:31:14;94902.86;;;7.61;68.55
43553;BME280;29153;42.696;23.218;2023-02-19T06:33:42;94896.36;;;7.71;68.09
43553;BME280;29153;42.696;23.218;2023-02-19T06:36:14;94899.48;;;7.87;67.19
43553;BME280;29153;42.696;23.218;2023-02-19T06:38:40;94894.63;;;8.03;66.36
43553;BME280;29153;42.696;23.218;2023-02-19T06:41:09;94891.83;;;8.12;65.50
43553;BME280;29153;42.696;23.218;2023-02-19T06:43:37;94898.23;;;8.21;65.44
43553;BME280;29153;42.696;23.218;2023-02-19T06:46:06;94892.47;;;8.24;65.16
43553;BME280;29153;42.696;23.218;2023-02-19T06:48:34;94895.78;;;8.37;64.47
43553;BME280;29153;42.696;23.218;2023-02-19T06:51:02;94896.92;;;8.46;63.82
43553;BME280;29153;42.696;23.218;2023-02-19T06:53:30;94897.66;;;8.73;62.74
43553;BME280;29153;42.696;23.218;2023-02-19T06:55:59;94889.82;;;8.81;62.59
43553;BME280;29153;42.696;23.218;2023-02-19T06:58:27;94892.47;;;8.86;62.28
43553;BME280;29153;42.696;23.218;2023-02-19T07:00:55;94893.04;;;8.90;62.17
43553;BME280;29153;42.696;23.218;2023-02-19T07:03:23;94900.20;;;8.90;61.57
43553;BME280;29153;42.696;23.218;2023-02-19T07:05:51;94906.33;;;9.00;60.82
43553;BME280;29153;42.696;23.218;2023-02-19T07:08:19;94901.45;;;9.19;60.04
43553;BME280;29153;42.696;23.218;2023-02-19T07:10:54;94900.45;;;9.33;60.15
43553;BME280;29153;42.696;23.218;2023-02-19T07:13:22;94894.73;;;9.48;59.52
43553;BME280;29153;42.696;23.218;2023-02-19T07:15:58;94904.35;;;9.70;58.43
43553;BME280;29153;42.696;23.218;2023-02-19T07:18:27;94899.17;;;10.00;57.68
43553;BME280;29153;42.696;23.218;2023-02-19T07:21:07;94901.14;;;10.37;57.71
43553;BME280;29153;42.696;23.218;2023-02-19T07:23:34;94892.95;;;10.92;56.45
43553;BME280;29153;42.696;23.218;2023-02-19T07:26:02;94891.59;;;11.37;53.34
43553;BME280;29153;42.696;23.218;2023-02-19T07:28:30;94888.53;;;11.87;53.79
43553;BME280;29153;42.696;23.218;2023-02-19T07:31:01;94886.94;;;12.40;52.62
43553;BME280;29153;42.696;23.218;2023-02-19T07:33:29;94875.70;;;12.85;49.35
43553;BME280;29153;42.696;23.218;2023-02-19T07:35:57;94884.34;;;13.32;48.72
43553;BME280;29153;42.696;23.218;2023-02-19T07:38:25;94878.75;;;13.59;46.75
43553;BME280;29153;42.696;23.218;2023-02-19T07:40:54;94865.83;;;14.14;45.86
43553;BME280;29153;42.696;23.218;2023-02-19T07:43:23;94868.17;;;14.39;45.47
43553;BME280;29153;42.696;23.218;2023-02-19T07:45:51;94874.64;;;14.33;47.00
43553;BME280;29153;42.696;23.218;2023-02-19T07:48:19;94867.25;;;14.49;45.70
43553;BME280;29153;42.696;23.218;2023-02-19T07:50:51;94861.45;;;14.79;44.55
43553;BME280;29153;42.696;23.218;2023-02-19T07:53:19;94861.45;;;14.79;44.55
43553;BME280;29153;42.696;23.218;2023-02-19T07:55:47;94855.32;;;14.95;44.53
43553;BME280;29153;42.696;23.218;2023-02-19T07:58:14;94851.73;;;15.18;43.32
43553;BME280;29153;42.696;23.218;2023-02-19T08:00:43;94853.03;;;15.34;42.69
43553;BME280;29153;42.696;23.218;2023-02-19T08:03:11;94860.70;;;15.38;42.36
43553;BME280;29153;42.696;23.218;2023-02-19T08:05:40;94857.78;;;15.37;43.11
43553;BME280;29153;42.696;23.218;2023-02-19T08:08:10;94862.83;;;15.39;42.06
43553;BME280;29153;42.696;23.218;2023-02-19T08:10:39;94856.76;;;15.36;42.84
43553;BME280;29153;42.696;23.218;2023-02-19T08:13:26;94852.81;;;15.17;42.38
43553;BME280;29153;42.696;23.218;2023-02-19T08:16:08;94859.03;;;15.42;44.76
43553;BME280;29153;42.696;23.218;2023-02-19T08:18:26;94865.88;;;15.48;43.68
43553;BME280;29153;42.696;23.218;2023-02-19T08:20:55;94858.63;;;15.52;43.31
43553;BME280;29153;42.696;23.218;2023-02-19T08:23:23;94866.84;;;15.69;44.04
43553;BME280;29153;42.696;23.218;2023-02-19T08:25:51;94864.27;;;15.64;42.79
43553;BME280;29153;42.696;23.218;2023-02-19T08:28:19;94872.55;;;15.32;43.78
43553;BME280;29153;42.696;23.218;2023-02-19T08:30:47;94862.17;;;15.15;44.22
43553;BME280;29153;42.696;23.218;2023-02-19T08:33:19;94866.23;;;15.12;44.67
43553;BME280;29153;42.696;23.218;2023-02-19T08:35:47;94858.69;;;15.17;43.82
43553;BME280;29153;42.696;23.218;2023-02-19T08:38:15;94860.14;;;15.25;44.17
43553;BME280;29153;42.696;23.218;2023-02-19T08:40:42;94858.80;;;15.25;44.55
43553;BME280;29153;42.696;23.218;2023-02-19T08:43:12;94849.76;;;15.54;45.24
43553;BME280;29153;42.696;23.218;2023-02-19T08:45:43;94849.06;;;15.62;45.52
43553;BME280;29153;42.696;23.218;2023-02-19T08:48:11;94848.63;;;15.71;44.54
43553;BME280;29153;42.696;23.218;2023-02-19T08:50:39;94845.38;;;15.74;44.90
43553;BME280;29153;42.696;23.218;2023-02-19T08:53:07;94847.30;;;15.84;44.04
43553;BME280;29153;42.696;23.218;2023-02-19T08:55:36;94839.97;;;15.90;44.28
43553;BME280;29153;42.696;23.218;2023-02-19T08:58:04;94775.66;;;15.45;42.51
43553;BME280;29153;42.696;23.218;2023-02-19T09:00:32;94842.20;;;15.85;44.31
43553;BME280;29153;42.696;23.218;2023-02-19T09:02:59;94840.58;;;15.87;45.48
43553;BME280;29153;42.696;23.218;2023-02-19T09:05:28;94838.58;;;15.79;43.67
43553;BME280;29153;42.696;23.218;2023-02-19T09:07:56;94835.17;;;15.76;43.40
43553;BME280;29153;42.696;23.218;2023-02-19T09:10:23;94827.45;;;15.88;44.71
43553;BME280;29153;42.696;23.218;2023-02-19T09:12:51;94824.55;;;15.87;43.49
43553;BME280;29153;42.696;23.218;2023-02-19T09:15:18;94816.73;;;15.77;44.77
43553;BME280;29153;42.696;23.218;2023-02-19T09:17:53;94815.23;;;15.84;43.51
43553;BME280;29153;42.696;23.218;2023-02-19T09:20:21;94809.44;;;15.93;44.26
43553;BME280;29153;42.696;23.218;2023-02-19T09:22:48;94816.98;;;15.91;44.44
43553;BME280;29153;42.696;23.218;2023-02-19T09:25:16;94827.80;;;15.84;45.84
43553;BME280;29153;42.696;23.218;2023-02-19T09:27:43;94810.30;;;15.91;45.22
43553;BME280;29153;42.696;23.218;2023-02-19T09:30:11;94822.80;;;15.93;43.08
43553;BME280;29153;42.696;23.218;2023-02-19T09:32:38;94813.61;;;15.86;46.28
43553;BME280;29153;42.696;23.218;2023-02-19T09:35:06;94810.52;;;15.92;44.39
43553;BME280;29153;42.696;23.218;2023-02-19T09:37:34;94809.33;;;15.99;44.00
43553;BME280;29153;42.696;23.218;2023-02-19T09:40:01;94814.16;;;16.10;43.05
43553;BME280;29153;42.696;23.218;2023-02-19T09:42:30;94813.98;;;16.18;42.79
43553;BME280;29153;42.696;23.218;2023-02-19T09:45:00;94805.30;;;16.12;42.41
43553;BME280;29153;42.696;23.218;2023-02-19T09:47:30;94810.87;;;16.38;43.55
43553;BME280;29153;42.696;23.218;2023-02-19T09:50:07;94808.55;;;16.59;43.19
43553;BME280;29153;42.696;23.218;2023-02-19T09:52:53;94809.13;;;16.56;40.51
43553;BME280;29153;42.696;23.218;2023-02-19T09:55:35;94796.17;;;16.49;39.70
43553;BME280;29153;42.696;23.218;2023-02-19T09:58:28;94781.80;;;16.59;39.02
43553;BME280;29153;42.696;23.218;2023-02-19T10:00:34;94773.19;;;16.48;40.63
43553;BME280;29153;42.696;23.218;2023-02-19T10:03:04;94766.90;;;16.66;39.60
43553;BME280;29153;42.696;23.218;2023-02-19T10:05:33;94768.42;;;16.81;38.76
43553;BME280;29153;42.696;23.218;2023-02-19T10:08:03;94763.53;;;16.83;38.23
43553;BME280;29153;42.696;23.218;2023-02-19T10:10:33;94761.95;;;16.82;39.01
43553;BME280;29153;42.696;23.218;2023-02-19T10:13:22;94756.22;;;16.97;40.57
43553;BME280;29153;42.696;23.218;2023-02-19T10:15:56;94742.74;;;16.69;38.25
43553;BME280;29153;42.696;23.218;2023-02-19T10:18:22;94734.81;;;16.86;39.29
43553;BME280;29153;42.696;23.218;2023-02-19T10:20:51;94733.72;;;16.98;39.83
43553;BME280;29153;42.696;23.218;2023-02-19T10:23:20;94728.41;;;17.07;37.82
43553;BME280;29153;42.696;23.218;2023-02-19T10:25:57;94728.33;;;17.09;38.20
43553;BME280;29153;42.696;23.218;2023-02-19T10:28:28;94723.73;;;16.90;37.58
43553;BME280;29153;42.696;23.218;2023-02-19T10:30:58;94717.63;;;16.78;38.18
43553;BME280;29153;42.696;23.218;2023-02-19T10:33:26;94673.56;;;16.54;38.00
43553;BME280;29153;42.696;23.218;2023-02-19T10:35:58;94705.54;;;16.81;38.23
43553;BME280;29153;42.696;23.218;2023-02-19T10:38:33;94696.72;;;16.69;38.02
43553;BME280;29153;42.696;23.218;2023-02-19T10:41:05;94693.72;;;16.82;38.71
43553;BME280;29153;42.696;23.218;2023-02-19T10:43:37;94687.86;;;16.71;38.83
43553;BME280;29153;42.696;23.218;2023-02-19T10:46:20;94676.66;;;16.69;38.24
43553;BME280;29153;42.696;23.218;2023-02-19T10:48:52;94671.09;;;16.57;41.07
43553;BME280;29153;42.696;23.218;2023-02-19T10:51:28;94668.51;;;16.74;38.88
43553;BME280;29153;42.696;23.218;2023-02-19T10:54:01;94664.66;;;16.78;37.60
43553;BME280;29153;42.696;23.218;2023-02-19T10:56:26;94664.64;;;16.89;37.24
43553;BME280;29153;42.696;23.218;2023-02-19T11:02:00;94654.08;;;17.12;38.04
43553;BME280;29153;42.696;23.218;2023-02-19T11:04:30;94641.35;;;17.18;37.86
43553;BME280;29153;42.696;23.218;2023-02-19T11:07:13;94633.70;;;17.14;36.93
43553;BME280;29153;42.696;23.218;2023-02-19T11:09:43;94633.30;;;17.09;38.13
43553;BME280;29153;42.696;23.218;2023-02-19T11:12:22;94626.38;;;17.17;38.02
43553;BME280;29153;42.696;23.218;2023-02-19T11:14:45;94619.56;;;17.30;36.83
43553;BME280;29153;42.696;23.218;2023-02-19T11:17:27;94609.41;;;17.39;37.53
43553;BME280;29153;42.696;23.218;2023-02-19T11:20:03;94611.16;;;17.52;37.73
43553;BME280;29153;42.696;23.218;2023-02-19T11:22:43;94608.81;;;17.59;36.92
43553;BME280;29153;42.696;23.218;2023-02-19T11:30:43;94590.67;;;17.56;37.38
43553;BME280;29153;42.696;23.218;2023-02-19T11:33:18;94586.11;;;17.48;36.54
43553;BME280;29153;42.696;23.218;2023-02-19T11:35:48;94581.97;;;17.61;36.19
43553;BME280;29153;42.696;23.218;2023-02-19T11:38:17;94572.05;;;17.62;35.87
43553;BME280;29153;42.696;23.218;2023-02-19T11:41:09;94569.91;;;17.70;35.88
43553;BME280;29153;42.696;23.218;2023-02-19T11:43:45;94571.41;;;17.65;36.48
43553;BME280;29153;42.696;23.218;2023-02-19T11:46:25;94560.28;;;17.69;36.10
43553;BME280;29153;42.696;23.218;2023-02-19T11:49:19;94560.13;;;17.74;35.79
43553;BME280;29153;42.696;23.218;2023-02-19T11:51:50;94554.83;;;17.80;36.61
43553;BME280;29153;42.696;23.218;2023-02-19T12:02:53;94537.28;;;17.59;37.27
43553;BME280;29153;42.696;23.218;2023-02-19T12:16:45;94509.77;;;17.56;34.83
43553;BME280;29153;42.696;23.218;2023-02-19T12:22:10;94507.19;;;17.54;35.98
43553;BME280;29153;42.696;23.218;2023-02-19T12:27:10;94494.34;;;17.45;34.86
43553;BME280;29153;42.696;23.218;2023-02-19T12:29:57;94489.39;;;17.41;35.81
43553;BME280;29153;42.696;23.218;2023-02-19T12:41:15;94467.09;;;17.34;35.24
43553;BME280;29153;42.696;23.218;2023-02-19T12:43:49;94463.88;;;17.17;35.58
43553;BME280;29153;42.696;23.218;2023-02-19T12:46:19;94465.77;;;17.08;36.35
43553;BME280;29153;42.696;23.218;2023-02-19T12:48:51;94454.91;;;17.13;35.74
43553;BME280;29153;42.696;23.218;2023-02-19T12:51:22;94420.99;;;17.03;35.00
43553;BME280;29153;42.696;23.218;2023-02-19T12:54:12;94436.08;;;17.07;34.93
43553;BME280;29153;42.696;23.218;2023-02-19T12:57:04;94438.39;;;17.03;35.78
43553;BME280;29153;42.696;23.218;2023-02-19T12:59:40;94433.89;;;16.92;36.17
43553;BME280;29153;42.696;23.218;2023-02-19T13:02:27;94422.70;;;16.90;36.48
43553;BME280;29153;42.696;23.218;2023-02-19T13:05:21;94422.70;;;17.07;36.22
43553;BME280;29153;42.696;23.218;2023-02-19T13:08:19;94418.53;;;17.04;35.87
43553;BME280;29153;42.696;23.218;2023-02-19T13:10:53;94410.34;;;17.00;35.65
43553;BME280;29153;42.696;23.218;2023-02-19T13:13:30;94410.75;;;16.96;35.97
43553;BME280;29153;42.696;23.218;2023-02-19T13:16:06;94403.66;;;17.00;35.37
43553;BME280;29153;42.696;23.218;2023-02-19T13:21:17;94394.30;;;17.00;35.79
43553;BME280;29153;42.696;23.218;2023-02-19T13:24:06;94387.91;;;16.90;35.50
43553;BME280;29153;42.696;23.218;2023-02-19T13:38:03;94365.95;;;16.99;36.58
43553;BME280;29153;42.696;23.218;2023-02-19T13:43:07;94356.29;;;16.92;35.63
43553;BME280;29153;42.696;23.218;2023-02-19T13:45:37;94358.66;;;16.94;36.58
43553;BME280;29153;42.696;23.218;2023-02-19T13:48:26;94354.47;;;16.90;35.94
43553;BME280;29153;42.696;23.218;2023-02-19T13:59:23;94343.97;;;16.59;36.38
43553;BME280;29153;42.696;23.218;2023-02-19T14:04:46;94339.28;;;16.36;36.96
43553;BME280;29153;42.696;23.218;2023-02-19T14:09:48;94329.13;;;16.27;37.83
43553;BME280;29153;42.696;23.218;2023-02-19T14:12:21;94330.61;;;16.22;38.01
43553;BME280;29153;42.696;23.218;2023-02-19T14:14:54;94328.09;;;16.26;38.68
43553;BME280;29153;42.696;23.218;2023-02-19T14:17:42;94329.20;;;16.16;38.18
43553;BME280;29153;42.696;23.218;2023-02-19T14:30:53;94304.28;;;16.53;36.89
43553;BME280;29153;42.696;23.218;2023-02-19T14:33:24;94302.66;;;16.63;35.85
43553;BME280;29153;42.696;23.218;2023-02-19T14:36:02;94304.23;;;16.72;36.04
43553;BME280;29153;42.696;23.218;2023-02-19T14:38:29;94305.96;;;16.77;36.13
43553;BME280;29153;42.696;23.218;2023-02-19T14:40:57;94297.30;;;16.80;37.00
43553;BME280;29153;42.696;23.218;2023-02-19T14:43:27;94295.62;;;16.73;37.16
43553;BME280;29153;42.696;23.218;2023-02-19T14:46:02;94290.13;;;16.78;37.15
43553;BME280;29153;42.696;23.218;2023-02-19T14:48:37;94293.59;;;16.78;36.93
43553;BME280;29153;42.696;23.218;2023-02-19T14:51:11;94295.47;;;16.78;36.51
43553;BME280;29153;42.696;23.218;2023-02-19T14:53:43;94290.91;;;16.78;35.87
43553;BME280;29153;42.696;23.218;2023-02-19T14:56:23;94286.11;;;16.78;36.22
43553;BME280;29153;42.696;23.218;2023-02-19T15:01:41;94283.84;;;16.74;36.92
43553;BME280;29153;42.696;23.218;2023-02-19T15:04:23;94275.83;;;16.65;36.28